Time;durP1;ratioP1;P1;durP2;ratioP2;P2;SDS_P1;SDS_P2;PMS_P1;PMS_P2;Temp;Humidity;BMP_temperature;BMP_pressure;BME280_temperature;BME280_humidity;BME280_pressure;Samples;Min_cycle;Max_cycle;Signal;HPM_P1;HPM_P2
2023/03/05 00:01:33;;;;;;;23.13;13.30;;;;;;;7.50;58.20;94495.56;5104454;28;20024;-75
2023/03/05 00:04:00;;;;;;;25.92;13.57;;;;;;;7.47;58.33;94491.72;5104578;28;20020;-73
2023/03/05 00:06:27;;;;;;;23.65;13.68;;;;;;;7.40;58.55;94498.13;5104660;28;20024;-75
2023/03/05 00:08:54;;;;;;;26.17;14.48;;;;;;;7.39;58.58;94487.59;5105932;28;20092;-76
2023/03/05 00:11:20;;;;;;;22.30;12.88;;;;;;;7.44;58.51;94490.59;5104535;28;20019;-78
2023/03/05 00:13:45;;;;;;;26.70;14.15;;;;;;;7.52;58.51;94493.19;5105478;28;20168;-77
2023/03/05 00:16:14;;;;;;;25.65;14.13;;;;;;;7.58;58.33;94481.28;5087412;28;20028;-76
2023/03/05 00:18:40;;;;;;;22.70;13.77;;;;;;;7.59;58.14;94477.34;5103840;28;20026;-76
2023/03/05 00:21:17;;;;;;;28.75;14.77;;;;;;;7.64;58.04;94478.81;5104154;28;20024;-75
2023/03/05 00:23:43;;;;;;;24.02;13.88;;;;;;;7.62;57.97;94476.47;5103835;28;20039;-75
2023/03/05 00:26:08;;;;;;;27.52;14.40;;;;;;;7.59;57.92;94471.13;5104208;28;20028;-77
2023/03/05 00:28:34;;;;;;;26.58;15.65;;;;;;;7.53;58.54;94473.59;5088469;28;20024;-76
2023/03/05 00:31:00;;;;;;;24.35;14.40;;;;;;;7.43;58.57;94478.13;5104694;28;20037;-76
2023/03/05 00:33:25;;;;;;;28.50;15.68;;;;;;;7.39;58.64;94469.22;5103649;28;20039;-76
2023/03/05 00:35:50;;;;;;;26.10;14.35;;;;;;;7.38;58.58;94475.13;5103379;28;20115;-75
2023/03/05 00:38:16;;;;;;;24.08;14.70;;;;;;;7.36;58.47;94463.88;5103718;28;20122;-76
2023/03/05 00:40:41;;;;;;;26.40;14.23;;;;;;;7.27;58.87;94463.69;5104616;28;20044;-75
2023/03/05 00:43:07;;;;;;;21.77;13.15;;;;;;;7.18;58.75;94465.06;5103577;28;20024;-75
2023/03/05 00:45:34;;;;;;;25.05;14.45;;;;;;;7.15;59.02;94457.69;5103173;28;20448;-76
2023/03/05 00:47:59;;;;;;;23.60;12.85;;;;;;;7.12;59.04;94455.81;5103642;28;20470;-75
2023/03/05 00:50:25;;;;;;;23.10;13.38;;;;;;;7.21;58.68;94457.19;5103893;28;20448;-76
2023/03/05 00:52:50;;;;;;;22.60;13.45;;;;;;;7.22;58.38;94450.50;5103122;28;20123;-76
2023/03/05 00:55:16;;;;;;;25.80;13.85;;;;;;;7.22;58.47;94447.78;5105037;28;20103;-74
2023/03/05 00:57:41;;;;;;;23.25;12.98;;;;;;;7.26;58.18;94449.25;5086154;28;20046;-74
2023/03/05 01:00:08;;;;;;;24.00;13.30;;;;;;;7.24;57.76;94446.16;5103510;28;20020;-76
2023/03/05 01:02:33;;;;;;;24.40;13.30;;;;;;;7.14;57.93;94436.25;5103063;28;20058;-75
2023/03/05 01:04:59;;;;;;;25.77;12.82;;;;;;;7.12;57.82;94439.41;5103587;28;20478;-75
2023/03/05 01:07:24;;;;;;;23.95;13.30;;;;;;;7.09;58.02;94443.00;5105076;28;20389;-77
2023/03/05 01:09:49;;;;;;;22.42;13.05;;;;;;;7.11;57.40;94437.88;5102218;28;20097;-75
2023/03/05 01:12:15;;;;;;;23.70;13.50;;;;;;;7.09;57.33;94443.00;5103783;28;20026;-76
2023/03/05 01:14:40;;;;;;;22.52;12.65;;;;;;;7.08;57.55;94436.00;5103036;28;20016;-75
2023/03/05 01:17:06;;;;;;;21.77;13.18;;;;;;;7.09;57.46;94436.75;5103567;28;20551;-76
2023/03/05 01:19:32;;;;;;;27.45;13.52;;;;;;;7.08;57.39;94436.00;5104672;28;20665;-76
2023/03/05 01:21:58;;;;;;;25.13;13.40;;;;;;;7.05;57.55;94431.38;5103252;28;20073;-75
2023/03/05 01:24:23;;;;;;;24.55;14.48;;;;;;;7.11;57.32;94440.63;5103273;28;20024;-75
2023/03/05 01:26:48;;;;;;;23.85;13.88;;;;;;;7.17;57.35;94435.41;5104944;28;20473;-77
2023/03/05 01:29:14;;;;;;;20.42;11.95;;;;;;;7.15;56.94;94435.06;5104893;28;20031;-75
2023/03/05 01:31:40;;;;;;;19.85;12.25;;;;;;;7.11;56.85;94435.16;5103946;28;20092;-75
2023/03/05 01:34:05;;;;;;;21.58;12.73;;;;;;;7.06;56.91;94429.44;5106349;28;20076;-75
2023/03/05 01:36:31;;;;;;;19.35;12.27;;;;;;;6.98;57.12;94417.88;5104761;28;20023;-76
2023/03/05 01:38:57;;;;;;;24.38;12.20;;;;;;;6.99;57.23;94419.41;5104223;28;20028;-76
2023/03/05 01:41:22;;;;;;;20.73;12.30;;;;;;;6.92;56.97;94423.06;5103045;28;20122;-75
2023/03/05 01:43:49;;;;;;;21.70;12.52;;;;;;;6.88;57.14;94419.69;5103039;28;20035;-75
2023/03/05 01:46:36;;;;;;;21.10;11.57;;;;;;;6.84;56.91;94415.47;5103117;28;20039;-75
2023/03/05 01:49:25;;;;;;;19.77;11.85;;;;;;;6.72;57.02;94418.88;5102788;28;20503;-74
2023/03/05 01:51:56;;;;;;;20.83;13.10;;;;;;;6.68;57.18;94416.22;5104350;28;20027;-75
2023/03/05 01:54:26;;;;;;;25.40;12.80;;;;;;;6.71;57.44;94417.31;5104481;28;20027;-76
2023/03/05 01:56:52;;;;;;;24.25;12.50;;;;;;;6.71;56.96;94420.06;5086270;28;20556;-76
2023/03/05 01:59:18;;;;;;;21.35;12.23;;;;;;;6.63;57.00;94409.28;5103280;28;20024;-75
2023/03/05 02:01:47;;;;;;;24.80;11.80;;;;;;;6.71;57.02;94414.59;5102581;28;20035;-75
2023/03/05 02:04:15;;;;;;;20.85;11.30;;;;;;;6.70;56.95;94413.81;5103148;28;20028;-75
2023/03/05 02:06:41;;;;;;;21.08;12.07;;;;;;;6.68;57.41;94423.66;5103148;28;20023;-74
2023/03/05 02:09:07;;;;;;;22.15;12.18;;;;;;;6.69;57.58;94427.91;5085628;28;20058;-76
2023/03/05 02:11:33;;;;;;;19.30;11.65;;;;;;;6.65;57.70;94419.78;5104567;28;20112;-76
2023/03/05 02:13:59;;;;;;;22.13;12.10;;;;;;;6.68;57.62;94415.44;5102649;28;20035;-76
2023/03/05 02:16:25;;;;;;;21.17;12.30;;;;;;;6.70;57.80;94416.56;5104238;28;20031;-75
2023/03/05 02:18:50;;;;;;;20.77;11.52;;;;;;;6.65;58.00;94425.25;5102972;28;20026;-75
2023/03/05 02:21:27;;;;;;;23.38;13.35;;;;;;;6.62;58.24;94426.09;5106317;28;20011;-75
2023/03/05 02:23:52;;;;;;;25.60;13.90;;;;;;;6.61;58.60;94419.09;5105957;28;20112;-75
2023/03/05 02:26:18;;;;;;;20.65;12.65;;;;;;;6.68;58.34;94420.91;5107880;28;20106;-76
2023/03/05 02:28:46;;;;;;;26.25;12.70;;;;;;;6.69;58.12;94420.47;5106150;28;20089;-75
2023/03/05 02:31:21;;;;;;;22.33;12.65;;;;;;;6.68;58.40;94418.94;5089031;28;20023;-75
2023/03/05 02:33:47;;;;;;;25.45;12.60;;;;;;;6.68;58.43;94415.44;5089305;28;20512;-76
2023/03/05 02:36:13;;;;;;;25.45;13.02;;;;;;;6.71;58.31;94423.56;5107587;28;20028;-76
2023/03/05 02:38:39;;;;;;;21.85;12.23;;;;;;;6.78;58.34;94430.84;5106472;28;20027;-76
2023/03/05 02:41:05;;;;;;;25.55;12.90;;;;;;;6.75;58.47;94423.47;5107237;28;20048;-75
2023/03/05 02:43:30;;;;;;;24.95;14.15;;;;;;;6.71;58.74;94425.50;5106265;28;20022;-75
2023/03/05 02:45:56;;;;;;;24.90;13.85;;;;;;;6.73;58.75;94428.59;5105550;28;20425;-76
2023/03/05 02:48:21;;;;;;;25.35;13.23;;;;;;;6.68;58.90;94421.69;5107471;28;20387;-76
2023/03/05 02:50:47;;;;;;;28.08;14.50;;;;;;;6.67;59.13;94430.31;5107424;28;20111;-75
2023/03/05 02:53:12;;;;;;;24.25;14.23;;;;;;;6.49;59.29;94426.00;5105656;28;20030;-75
2023/03/05 02:55:38;;;;;;;24.33;13.77;;;;;;;6.42;59.48;94428.09;5105826;28;20024;-75
2023/03/05 02:58:03;;;;;;;24.63;14.57;;;;;;;6.35;59.62;94431.75;5106417;28;20047;-75
2023/03/05 03:00:29;;;;;;;27.58;13.80;;;;;;;6.29;59.55;94431.47;5105840;28;20103;-75
2023/03/05 03:02:54;;;;;;;23.95;13.88;;;;;;;6.29;59.55;94433.44;5105610;28;20036;-75
2023/03/05 03:05:19;;;;;;;24.52;13.63;;;;;;;6.27;59.26;94441.28;5105331;28;20046;-76
2023/03/05 03:07:45;;;;;;;26.15;14.63;;;;;;;6.15;59.41;94436.44;5088339;28;20024;-75
2023/03/05 03:10:11;;;;;;;25.30;14.27;;;;;;;6.17;59.58;94440.28;5106797;28;20161;-76
2023/03/05 03:12:38;;;;;;;25.55;14.60;;;;;;;6.18;59.79;94438.31;5105591;28;20038;-75
2023/03/05 03:15:04;;;;;;;24.42;13.52;;;;;;;6.11;59.71;94440.00;5105363;28;20036;-75
2023/03/05 03:17:30;;;;;;;26.73;14.80;;;;;;;6.10;59.61;94430.28;5105679;28;20118;-75
2023/03/05 03:19:55;;;;;;;27.77;14.75;;;;;;;6.03;59.66;94433.16;5106548;28;20094;-76
2023/03/05 03:22:20;;;;;;;26.63;13.75;;;;;;;5.98;59.74;94430.16;5105358;28;20107;-75
2023/03/05 03:24:46;;;;;;;22.88;13.32;;;;;;;5.91;60.02;94435.69;5106440;28;20050;-75
2023/03/05 03:27:11;;;;;;;27.95;15.10;;;;;;;5.84;60.06;94431.16;5106325;27;20043;-75
2023/03/05 03:29:37;;;;;;;28.90;15.38;;;;;;;5.85;60.24;94435.44;5105226;28;20027;-75
2023/03/05 03:32:03;;;;;;;32.03;15.95;;;;;;;5.82;60.26;94439.75;5103917;28;20168;-75
2023/03/05 03:34:28;;;;;;;28.00;14.95;;;;;;;5.85;60.14;94436.19;5105159;28;20036;-75
2023/03/05 03:36:54;;;;;;;27.35;14.82;;;;;;;5.86;60.49;94437.75;5104897;28;20336;-76
2023/03/05 03:39:20;;;;;;;28.08;14.20;;;;;;;5.88;60.31;94442.78;5106440;28;20060;-75
2023/03/05 03:41:50;;;;;;;26.75;14.70;;;;;;;5.86;60.19;94440.47;5105944;28;20047;-75
2023/03/05 03:44:17;;;;;;;30.58;15.63;;;;;;;5.84;60.36;94437.38;5105918;28;20028;-75
2023/03/05 03:46:45;;;;;;;25.98;14.15;;;;;;;5.86;60.49;94443.19;5106786;28;20028;-74
2023/03/05 03:49:15;;;;;;;33.35;15.95;;;;;;;5.85;60.52;94449.06;5087749;28;20572;-75
2023/03/05 03:51:41;;;;;;;30.63;15.80;;;;;;;5.91;60.39;94438.41;5104694;28;20118;-75
2023/03/05 03:54:06;;;;;;;26.38;15.20;;;;;;;5.87;60.18;94438.50;5104671;28;20102;-76
2023/03/05 03:56:31;;;;;;;27.58;15.13;;;;;;;5.83;60.38;94427.66;5106368;28;20039;-76
2023/03/05 03:58:57;;;;;;;31.95;16.50;;;;;;;5.91;60.38;94436.53;5104575;28;20023;-74
2023/03/05 04:01:22;;;;;;;28.63;15.18;;;;;;;5.83;60.25;94432.34;5104312;28;20413;-76
2023/03/05 04:03:47;;;;;;;32.38;16.60;;;;;;;5.96;60.33;94440.69;5105708;28;20038;-75
2023/03/05 04:06:13;;;;;;;27.92;15.23;;;;;;;5.99;60.01;94440.63;5105679;28;20042;-75
2023/03/05 04:08:38;;;;;;;30.80;16.48;;;;;;;5.98;60.11;94439.09;5105701;28;20031;-75
2023/03/05 04:11:04;;;;;;;30.77;15.75;;;;;;;5.97;60.11;94439.53;5087463;28;20085;-75
2023/03/05 04:13:30;;;;;;;28.52;15.48;;;;;;;5.95;60.14;94437.19;5104059;28;20478;-76
2023/03/05 04:15:55;;;;;;;27.13;15.05;;;;;;;5.91;59.96;94438.41;5104253;28;20020;-75
2023/03/05 04:18:21;;;;;;;31.13;15.20;;;;;;;5.86;60.15;94445.91;5105598;28;20020;-75
2023/03/05 04:20:46;;;;;;;32.78;15.50;;;;;;;5.85;60.01;94444.38;5104141;28;20201;-74
2023/03/05 04:23:12;;;;;;;29.92;15.73;;;;;;;5.90;59.77;94439.63;5104181;28;20032;-74
2023/03/05 04:25:37;;;;;;;28.92;15.55;;;;;;;5.95;59.33;94445.38;5103933;28;20032;-76
2023/03/05 04:28:03;;;;;;;28.33;14.98;;;;;;;5.92;58.89;94445.47;5104302;28;20023;-75
2023/03/05 04:30:30;;;;;;;30.33;16.25;;;;;;;5.92;58.66;94445.47;5105316;28;20055;-74
2023/03/05 04:32:55;;;;;;;27.92;14.95;;;;;;;5.90;58.70;94448.56;5104099;28;20023;-75
2023/03/05 04:35:21;;;;;;;27.13;14.75;;;;;;;5.99;58.11;94442.59;5086630;28;20231;-76
2023/03/05 04:37:46;;;;;;;27.65;15.60;;;;;;;6.01;58.24;94443.72;5103584;28;20034;-76
2023/03/05 04:40:12;;;;;;;24.67;13.80;;;;;;;5.98;58.23;94446.53;5103969;28;20119;-76
2023/03/05 04:42:37;;;;;;;25.48;13.77;;;;;;;5.90;58.32;94440.38;5104953;27;20113;-76
2023/03/05 04:45:03;;;;;;;30.20;14.43;;;;;;;5.84;58.54;94439.31;5103718;28;20107;-75
2023/03/05 04:47:29;;;;;;;28.20;15.25;;;;;;;5.80;58.66;94444.09;5105035;28;20039;-74
2023/03/05 04:49:54;;;;;;;28.58;15.20;;;;;;;5.73;58.99;94436.78;5105482;28;20149;-76
2023/03/05 04:52:20;;;;;;;27.52;15.25;;;;;;;5.72;59.08;94439.94;5106165;28;20285;-76
2023/03/05 04:54:45;;;;;;;30.38;14.32;;;;;;;5.70;59.23;94440.38;5103966;28;20035;-75
2023/03/05 04:57:11;;;;;;;28.48;15.60;;;;;;;5.70;58.93;94437.63;5103862;28;20024;-74
2023/03/05 04:59:36;;;;;;;27.10;14.23;;;;;;;5.64;59.25;94441.28;5104619;28;20548;-77
2023/03/05 05:02:02;;;;;;;27.70;14.55;;;;;;;5.60;59.33;94431.19;5105084;28;20027;-75
2023/03/05 05:04:28;;;;;;;29.17;14.93;;;;;;;5.62;59.40;94435.44;5103065;28;20038;-76
2023/03/05 05:06:55;;;;;;;29.40;15.48;;;;;;;5.60;59.44;94428.47;5103531;28;20031;-75
2023/03/05 05:09:21;;;;;;;29.95;14.82;;;;;;;5.56;59.28;94430.50;5103408;28;20030;-75
2023/03/05 05:11:46;;;;;;;32.75;14.98;;;;;;;5.51;59.81;94441.88;5103300;28;20099;-75
2023/03/05 05:14:12;;;;;;;29.85;15.13;;;;;;;5.46;59.79;94438.84;5103484;28;20375;-75
2023/03/05 05:16:37;;;;;;;24.30;14.00;;;;;;;5.39;59.54;94426.13;5104426;28;20111;-75
2023/03/05 05:19:02;;;;;;;28.88;15.85;;;;;;;5.46;59.75;94438.84;5103615;28;20036;-76
2023/03/05 05:21:28;;;;;;;32.67;16.27;;;;;;;5.40;59.56;94430.38;5104163;28;20428;-76
2023/03/05 05:23:53;;;;;;;24.98;14.88;;;;;;;5.45;59.45;94438.09;5105084;28;20032;-75
2023/03/05 05:26:19;;;;;;;29.10;15.43;;;;;;;5.45;59.06;94438.09;5103377;28;20533;-74
2023/03/05 05:28:44;;;;;;;32.65;15.75;;;;;;;5.44;59.17;94436.53;5103405;28;20634;-75
2023/03/05 05:31:12;;;;;;;28.70;15.07;;;;;;;5.47;59.32;94445.84;5103268;28;20051;-76
2023/03/05 05:33:38;;;;;;;32.05;15.35;;;;;;;5.52;59.02;94442.66;5085714;28;20473;-75
2023/03/05 05:36:06;;;;;;;31.52;15.07;;;;;;;5.56;59.01;94448.78;5086207;28;20066;-74
2023/03/05 05:38:32;;;;;;;25.90;13.95;;;;;;;5.60;58.83;94449.50;5102801;28;20077;-75
2023/03/05 05:41:06;;;;;;;31.15;14.52;;;;;;;5.72;58.55;94450.84;5086020;28;20043;-75
2023/03/05 05:43:31;;;;;;;25.23;13.73;;;;;;;5.76;57.89;94446.13;5102809;28;20058;-76
2023/03/05 05:46:05;;;;;;;28.55;14.35;;;;;;;5.76;57.67;94449.59;5086243;28;20055;-76
2023/03/05 05:48:31;;;;;;;29.45;13.40;;;;;;;5.78;57.79;94452.69;5103058;28;20024;-75
2023/03/05 05:50:57;;;;;;;26.33;13.63;;;;;;;5.84;57.00;94447.50;5103237;28;20062;-76
2023/03/05 05:53:23;;;;;;;27.70;13.43;;;;;;;5.88;56.59;94456.41;5086741;28;20060;-75
2023/03/05 05:55:49;;;;;;;26.15;13.95;;;;;;;5.86;56.17;94461.53;5088652;28;20031;-74
2023/03/05 05:58:14;;;;;;;27.80;13.20;;;;;;;5.88;56.35;94455.63;5110136;28;20031;-75
2023/03/05 06:00:40;;;;;;;25.27;13.68;;;;;;;5.94;56.10;94459.44;5108570;28;20401;-75
2023/03/05 06:03:06;;;;;;;26.65;13.57;;;;;;;5.97;55.82;94458.63;5089894;28;20015;-76
2023/03/05 06:05:32;;;;;;;29.00;13.13;;;;;;;5.91;55.71;94462.97;5089997;28;20456;-76
2023/03/05 06:07:58;;;;;;;28.67;13.15;;;;;;;5.85;55.24;94465.44;5106757;28;20024;-76
2023/03/05 06:10:23;;;;;;;24.52;13.05;;;;;;;5.85;55.54;94463.47;5108301;28;20027;-75
2023/03/05 06:12:48;;;;;;;25.33;13.05;;;;;;;5.83;55.59;94457.66;5107614;28;20019;-76
2023/03/05 06:15:14;;;;;;;27.67;13.95;;;;;;;5.92;54.90;94470.03;5106770;28;20091;-74
2023/03/05 06:17:39;;;;;;;25.40;13.35;;;;;;;5.96;54.86;94476.94;5106246;28;20023;-75
2023/03/05 06:20:05;;;;;;;23.45;11.93;;;;;;;5.95;54.84;94472.66;5108014;28;20045;-74
2023/03/05 06:22:35;;;;;;;30.42;13.55;;;;;;;5.97;54.46;94469.53;5106085;28;20510;-76
2023/03/05 06:25:00;;;;;;;23.63;12.55;;;;;;;5.97;54.68;94466.81;5107443;28;20032;-74
2023/03/05 06:27:26;;;;;;;27.10;13.23;;;;;;;6.05;54.45;94477.16;5107787;28;20030;-74
2023/03/05 06:29:53;;;;;;;28.15;13.60;;;;;;;6.07;54.48;94474.78;5088684;28;20398;-74
2023/03/05 06:32:18;;;;;;;25.58;14.48;;;;;;;6.15;54.30;94475.44;5106583;28;20028;-74
2023/03/05 06:34:44;;;;;;;29.10;15.20;;;;;;;6.17;54.16;94480.47;5106721;28;20023;-75
2023/03/05 06:37:09;;;;;;;27.30;14.00;;;;;;;6.25;54.11;94488.09;5107548;28;20497;-74
2023/03/05 06:39:35;;;;;;;28.45;14.20;;;;;;;6.17;53.98;94488.66;5107378;28;20026;-76
2023/03/05 06:42:00;;;;;;;23.92;13.18;;;;;;;6.26;53.80;94494.34;5105471;28;20066;-75
2023/03/05 06:44:25;;;;;;;28.95;13.07;;;;;;;6.26;53.64;94484.19;5105937;28;20035;-74
2023/03/05 06:46:51;;;;;;;33.13;13.07;;;;;;;6.35;53.01;94489.06;5105911;28;20047;-74
2023/03/05 06:49:16;;;;;;;24.42;12.68;;;;;;;6.43;52.75;94487.75;5107315;28;20132;-75
2023/03/05 06:51:42;;;;;;;25.38;11.25;;;;;;;6.41;52.29;94490.13;5105707;28;20502;-74
2023/03/05 06:54:10;;;;;;;26.02;12.95;;;;;;;6.48;52.63;94494.66;5105849;28;20035;-75
2023/03/05 06:56:37;;;;;;;27.67;13.90;;;;;;;6.59;52.04;94497.94;5105585;28;20517;-76
2023/03/05 06:59:03;;;;;;;25.58;12.95;;;;;;;6.69;51.30;94493.47;5106988;28;20020;-76
2023/03/05 07:01:28;;;;;;;25.58;13.68;;;;;;;6.67;51.01;94495.88;5105843;28;20566;-74
2023/03/05 07:03:57;;;;;;;23.98;13.20;;;;;;;6.73;50.93;94488.72;5106269;28;20027;-75
2023/03/05 07:06:23;;;;;;;28.98;15.32;;;;;;;6.74;50.90;94490.25;5104599;28;20072;-75
2023/03/05 07:08:48;;;;;;;25.48;13.10;;;;;;;6.86;50.77;94495.06;5105344;28;20021;-75
2023/03/05 07:11:17;;;;;;;24.35;14.50;;;;;;;6.85;50.55;94494.28;5088682;28;20150;-75
2023/03/05 07:13:44;;;;;;;25.58;14.02;;;;;;;6.89;50.41;94499.69;5106875;28;20031;-74
2023/03/05 07:16:14;;;;;;;32.10;15.88;;;;;;;7.00;50.49;94507.66;5105293;28;20028;-75
2023/03/05 07:18:40;;;;;;;28.90;14.60;;;;;;;6.99;50.32;94500.63;5088721;28;20098;-75
2023/03/05 07:21:06;;;;;;;28.63;14.30;;;;;;;7.04;49.98;94502.84;5088127;28;20518;-75
2023/03/05 07:23:32;;;;;;;25.75;13.98;;;;;;;7.04;50.05;94500.91;5106760;28;20019;-75
2023/03/05 07:26:05;;;;;;;25.65;13.57;;;;;;;7.14;49.75;94499.88;5105159;28;20024;-75
2023/03/05 07:28:31;;;;;;;32.97;14.88;;;;;;;7.17;50.10;94495.56;5105445;28;20534;-76
2023/03/05 07:31:02;;;;;;;34.50;16.55;;;;;;;7.37;50.13;94492.75;5104622;28;20080;-74
2023/03/05 07:33:27;;;;;;;29.10;14.45;;;;;;;7.49;50.00;94486.59;5104896;28;20053;-75
2023/03/05 07:35:53;;;;;;;30.10;14.77;;;;;;;7.60;49.63;94505.47;5104457;28;20595;-74
2023/03/05 07:38:19;;;;;;;29.67;15.10;;;;;;;7.69;49.16;94498.22;5105531;27;20032;-75
2023/03/05 07:40:44;;;;;;;27.48;15.23;;;;;;;7.82;48.74;94487.34;5087526;28;20105;-75
2023/03/05 07:43:10;;;;;;;26.88;14.73;;;;;;;7.91;48.60;94486.72;5087645;28;20031;-75
2023/03/05 07:45:41;;;;;;;31.17;15.50;;;;;;;7.98;48.44;94486.56;5106365;28;20024;-74
2023/03/05 07:48:08;;;;;;;27.88;14.70;;;;;;;7.95;48.32;94487.41;5104045;28;20488;-74
2023/03/05 07:50:33;;;;;;;30.95;15.35;;;;;;;8.03;47.96;94490.72;5104754;28;20035;-75
2023/03/05 07:52:59;;;;;;;28.83;14.55;;;;;;;8.14;47.66;94486.53;5105910;28;20020;-74
2023/03/05 07:55:24;;;;;;;30.67;15.27;;;;;;;8.04;47.38;94497.75;5087691;28;20059;-75
2023/03/05 07:57:50;;;;;;;28.45;16.20;;;;;;;8.22;47.19;94496.06;5105692;28;20024;-76
2023/03/05 08:00:15;;;;;;;32.42;16.10;;;;;;;8.36;47.02;94489.47;5105453;28;20030;-74
2023/03/05 08:02:41;;;;;;;30.52;14.85;;;;;;;8.36;46.58;94492.19;5104186;28;20452;-76
2023/03/05 08:05:06;;;;;;;28.83;14.85;;;;;;;8.51;46.18;94489.84;5103717;28;20034;-75
2023/03/05 08:07:32;;;;;;;30.02;15.38;;;;;;;8.55;45.85;94492.50;5108937;28;20109;-75
2023/03/05 08:09:57;;;;;;;28.65;15.90;;;;;;;8.69;45.73;94495.59;5105522;28;20058;-75
2023/03/05 08:12:23;;;;;;;26.80;15.25;;;;;;;8.75;45.72;94493.84;5105053;28;20046;-75
2023/03/05 08:14:50;;;;;;;27.50;15.50;;;;;;;8.86;45.25;94481.81;5103851;28;20020;-76
2023/03/05 08:17:15;;;;;;;27.15;15.35;;;;;;;8.96;45.20;94492.47;5104865;27;20032;-77
2023/03/05 08:19:41;;;;;;;27.17;14.88;;;;;;;9.20;44.78;94490.16;5087074;28;20027;-75
2023/03/05 08:22:06;;;;;;;24.30;13.05;;;;;;;9.43;44.35;94485.56;5103871;28;20118;-76
2023/03/05 08:24:32;;;;;;;26.20;14.75;;;;;;;9.58;43.50;94489.41;5104137;28;20032;-76
2023/03/05 08:26:57;;;;;;;28.02;14.07;;;;;;;9.63;43.46;94483.31;5103853;28;20042;-75
2023/03/05 08:29:23;;;;;;;25.15;14.30;;;;;;;9.77;43.52;94482.13;5103894;28;20092;-75
2023/03/05 08:31:50;;;;;;;28.92;14.73;;;;;;;10.05;43.50;94475.66;5103823;28;20030;-74
2023/03/05 08:34:16;;;;;;;25.15;14.23;;;;;;;10.17;43.41;94476.84;5104539;28;20055;-75
2023/03/05 08:36:41;;;;;;;28.92;15.82;;;;;;;10.21;43.16;94476.72;5105273;28;20152;-75
2023/03/05 08:39:08;;;;;;;27.45;15.98;;;;;;;10.11;42.45;94467.63;5104919;28;20472;-77
2023/03/05 08:41:34;;;;;;;23.77;13.93;;;;;;;10.15;41.93;94476.53;5103481;28;20043;-74
2023/03/05 08:43:59;;;;;;;26.48;14.52;;;;;;;10.26;42.10;94474.19;5105053;28;20114;-75
2023/03/05 08:46:25;;;;;;;26.98;14.73;;;;;;;10.36;41.81;94464.81;5105046;27;20103;-73
2023/03/05 08:48:50;;;;;;;27.35;15.23;;;;;;;10.44;41.97;94461.81;5105135;28;20180;-76
2023/03/05 08:51:18;;;;;;;24.60;14.63;;;;;;;10.58;42.03;94453.06;5104719;28;20031;-77
2023/03/05 08:53:44;;;;;;;27.33;15.82;;;;;;;10.59;41.56;94455.34;5103393;28;20023;-78
2023/03/05 08:56:10;;;;;;;27.45;14.63;;;;;;;10.56;41.24;94447.25;5104122;28;20437;-82
2023/03/05 08:58:36;;;;;;;23.23;14.75;;;;;;;10.68;41.50;94467.63;5086922;28;20035;-84
2023/03/05 09:01:02;;;;;;;28.70;15.55;;;;;;;10.72;40.89;94454.50;5103708;28;20035;-82
2023/03/05 09:03:27;;;;;;;30.25;15.90;;;;;;;10.74;40.48;94452.09;5103898;28;20060;-83
2023/03/05 09:05:52;;;;;;;26.50;15.32;;;;;;;10.73;40.17;94445.06;5103460;28;20442;-78
2023/03/05 09:08:18;;;;;;;27.90;15.48;;;;;;;10.55;40.46;94442.94;5086568;28;20464;-78
2023/03/05 09:10:44;;;;;;;27.00;16.27;;;;;;;10.88;40.25;94446.03;5105298;28;20019;-83
2023/03/05 09:13:10;;;;;;;26.98;14.02;;;;;;;10.93;39.51;94444.69;5120294;28;20020;-84
2023/03/05 09:15:36;;;;;;;24.60;15.00;;;;;;;11.18;39.64;94436.25;5086843;28;20023;-84
2023/03/05 09:18:01;;;;;;;27.60;15.82;;;;;;;11.10;39.02;94433.00;5086639;28;20030;-83
2023/03/05 09:20:27;;;;;;;24.27;15.00;;;;;;;10.95;39.39;94439.50;5103496;28;20028;-91
2023/03/05 09:22:52;;;;;;;31.40;15.57;;;;;;;10.86;39.39;94438.25;5093256;28;20075;-86
2023/03/05 09:25:18;;;;;;;25.92;14.73;;;;;;;10.82;39.28;94429.34;5110381;28;20044;-83
2023/03/05 09:27:44;;;;;;;24.70;14.38;;;;;;;10.71;39.25;94433.72;5104018;28;20020;-84
2023/03/05 09:30:11;;;;;;;25.35;13.05;;;;;;;10.53;39.49;94434.38;5090576;28;20027;-81
2023/03/05 09:32:36;;;;;;;23.73;13.80;;;;;;;10.52;39.13;94425.38;5108851;28;20035;-81
2023/03/05 09:35:02;;;;;;;24.77;12.63;;;;;;;10.54;38.59;94414.69;5107532;28;20073;-82
2023/03/05 09:37:28;;;;;;;27.17;13.25;;;;;;;10.51;37.73;94414.84;5107310;28;20509;-89
2023/03/05 09:39:54;;;;;;;19.90;13.05;;;;;;;10.57;37.74;94411.06;5107718;28;20023;-81
2023/03/05 09:42:58;;;;;;;21.38;13.48;;;;;;;10.35;37.37;94415.81;5108989;28;20030;-84
2023/03/05 09:45:32;;;;;;;22.52;12.77;;;;;;;10.24;37.48;94409.91;5108660;28;20051;-88
2023/03/05 09:48:06;;;;;;;18.30;11.90;;;;;;;10.21;37.58;94406.06;5090502;28;20070;-85
2023/03/05 09:50:44;;;;;;;21.10;12.68;;;;;;;10.10;38.06;94413.91;5109182;28;20129;-83
2023/03/05 09:53:19;;;;;;;23.65;12.48;;;;;;;10.17;37.86;94405.41;5090618;28;20034;-83
2023/03/05 09:55:49;;;;;;;26.17;13.23;;;;;;;10.19;37.75;94415.97;5107364;28;20112;-82
2023/03/05 09:58:27;;;;;;;19.17;12.27;;;;;;;10.24;37.93;94404.44;5107113;28;20413;-80
2023/03/05 10:00:55;;;;;;;19.90;12.75;;;;;;;10.34;37.50;94400.53;5089980;28;20031;-79
2023/03/05 10:03:45;;;;;;;18.92;12.35;;;;;;;10.34;37.22;94403.28;5107064;28;20043;-80
2023/03/05 10:06:22;;;;;;;21.75;12.48;;;;;;;10.42;36.98;94398.28;5108489;28;20083;-80
2023/03/05 10:09:08;;;;;;;21.67;12.40;;;;;;;10.59;37.23;94396.84;5108183;27;20058;-77
2023/03/05 10:11:59;;;;;;;22.38;13.00;;;;;;;10.86;36.92;94388.75;5107992;28;20054;-75
2023/03/05 10:14:32;;;;;;;17.98;11.52;;;;;;;10.88;35.64;94399.28;5108177;28;20118;-75
2023/03/05 10:17:09;;;;;;;18.77;11.88;;;;;;;10.64;35.79;94391.53;5106859;28;20032;-79
2023/03/05 10:19:59;;;;;;;17.05;10.98;;;;;;;10.67;35.27;94381.66;5111154;28;20125;-79
2023/03/05 10:22:30;;;;;;;18.90;11.00;;;;;;;10.65;35.20;94373.06;5106509;28;20035;-78
2023/03/05 10:25:06;;;;;;;20.25;12.07;;;;;;;10.54;35.85;94381.72;5106509;28;20564;-78
2023/03/05 10:27:52;;;;;;;19.90;13.13;;;;;;;10.39;35.95;94367.00;5106206;28;20116;-77
2023/03/05 10:30:35;;;;;;;18.30;11.80;;;;;;;10.73;35.81;94362.59;5107999;28;20031;-75
2023/03/05 10:33:15;;;;;;;22.88;11.98;;;;;;;10.96;35.39;94364.81;5107743;28;20080;-78
2023/03/05 10:35:53;;;;;;;18.02;11.00;;;;;;;11.14;35.27;94353.88;5107416;28;20180;-77
2023/03/05 10:38:39;;;;;;;16.70;10.38;;;;;;;11.54;33.82;94352.25;5108033;28;20493;-78
2023/03/05 10:41:36;;;;;;;18.30;11.30;;;;;;;12.55;32.77;94352.22;5107322;28;20075;-78
2023/03/05 10:44:14;;;;;;;16.92;11.40;;;;;;;14.34;30.36;94345.03;5081201;28;20413;-78
2023/03/05 10:46:40;;;;;;;15.85;10.38;;;;;;;14.52;29.54;94335.81;5106162;28;20033;-78
2023/03/05 10:49:18;;;;;;;15.93;11.18;;;;;;;14.83;29.01;94344.38;5105980;28;20408;-77
2023/03/05 10:51:53;;;;;;;18.10;11.38;;;;;;;14.07;29.83;94327.44;5106301;28;20076;-78
2023/03/05 10:54:27;;;;;;;17.67;10.25;;;;;;;14.70;29.11;94335.63;5106020;28;20063;-76
2023/03/05 10:57:11;;;;;;;18.35;10.98;;;;;;;14.28;29.69;94333.13;5107053;28;20116;-75
2023/03/05 10:59:40;;;;;;;18.95;11.23;;;;;;;14.13;29.59;94322.03;5105603;28;20027;-76
2023/03/05 11:02:07;;;;;;;17.35;10.82;;;;;;;13.72;29.70;94326.53;5105828;28;20123;-75
2023/03/05 11:04:38;;;;;;;18.80;10.63;;;;;;;13.57;30.41;94331.22;5105859;28;20057;-75
2023/03/05 11:07:31;;;;;;;18.58;11.60;;;;;;;12.61;30.93;94309.75;5105455;28;20027;-76
2023/03/05 11:09:59;;;;;;;20.45;11.73;;;;;;;12.55;31.66;94322.66;5105427;28;20458;-76
2023/03/05 11:12:29;;;;;;;15.55;10.10;;;;;;;12.23;32.01;94311.09;5106996;28;20035;-77
2023/03/05 11:15:13;;;;;;;17.17;9.98;;;;;;;11.92;32.33;94305.78;5105248;28;20039;-76
2023/03/05 11:17:42;;;;;;;;;;;;;;;11.89;32.87;94305.94;5107636;28;20489;-77
2023/03/05 11:20:32;;;;;;;21.27;12.63;;;;;;;11.73;33.67;94298.72;5105293;28;19937;-77
2023/03/05 11:23:00;;;;;;;22.52;14.10;;;;;;;11.67;34.42;94298.56;5099015;28;20036;-81
2023/03/05 11:25:26;;;;;;;19.55;11.77;;;;;;;11.46;34.64;94293.22;5109933;28;20067;-86
2023/03/05 11:27:57;;;;;;;16.83;11.25;;;;;;;11.27;35.33;94295.97;5105184;28;20016;-76